sensor_id;sensor_type;location;lat;lon;timestamp;pressure;altitude;pressure_sealevel;temperature;humidity
7940;BME280;4015;48.888;9.226;2023-03-22T00:01:19;158041.66;;;11.14;75.76
7940;BME280;4015;48.888;9.226;2023-03-22T00:03:46;158049.28;;;11.17;75.35
7940;BME280;4015;48.888;9.226;2023-03-22T00:06:12;158058.25;;;11.20;74.88
7940;BME280;4015;48.888;9.226;2023-03-22T00:08:38;158053.13;;;11.18;74.84
7940;BME280;4015;48.888;9.226;2023-03-22T00:11:04;158042.94;;;11.14;74.90
7940;BME280;4015;48.888;9.226;2023-03-22T00:13:32;158042.94;;;11.14;75.07
7940;BME280;4015;48.888;9.226;2023-03-22T00:15:58;158017.34;;;11.04;74.77
7940;BME280;4015;48.888;9.226;2023-03-22T00:18:24;158017.34;;;11.04;75.21
7940;BME280;4015;48.888;9.226;2023-03-22T00:20:55;158014.81;;;11.03;75.68
7940;BME280;4015;48.888;9.226;2023-03-22T00:23:21;158023.78;;;11.06;75.66
7940;BME280;4015;48.888;9.226;2023-03-22T00:25:47;158028.88;;;11.08;75.00
7940;BME280;4015;48.888;9.226;2023-03-22T00:28:13;158045.47;;;11.15;74.77
7940;BME280;4015;48.888;9.226;2023-03-22T00:30:41;158032.69;;;11.10;75.78
7940;BME280;4015;48.888;9.226;2023-03-22T00:33:06;158035.22;;;11.11;75.68
7940;BME280;4015;48.888;9.226;2023-03-22T00:35:32;158030.13;;;11.09;75.90
7940;BME280;4015;48.888;9.226;2023-03-22T00:37:57;158000.75;;;10.97;76.70
7940;BME280;4015;48.888;9.226;2023-03-22T00:40:31;157981.59;;;10.90;77.31
7940;BME280;4015;48.888;9.226;2023-03-22T00:42:57;157975.16;;;10.87;78.17
7940;BME280;4015;48.888;9.226;2023-03-22T00:45:22;157963.72;;;10.83;78.50
7940;BME280;4015;48.888;9.226;2023-03-22T00:47:47;157953.47;;;10.78;78.58
7940;BME280;4015;48.888;9.226;2023-03-22T00:50:12;157943.25;;;10.74;78.35
7940;BME280;4015;48.888;9.226;2023-03-22T00:52:38;157933.03;;;10.70;78.91
7940;BME280;4015;48.888;9.226;2023-03-22T00:55:03;157908.75;;;10.61;78.66
7940;BME280;4015;48.888;9.226;2023-03-22T00:57:29;157927.91;;;10.68;78.69
7940;BME280;4015;48.888;9.226;2023-03-22T00:59:54;157949.66;;;10.77;78.68
7940;BME280;4015;48.888;9.226;2023-03-22T01:02:22;157904.94;;;10.59;79.50
7940;BME280;4015;48.888;9.226;2023-03-22T01:04:54;157897.28;;;10.56;79.94
7940;BME280;4015;48.888;9.226;2023-03-22T01:07:19;157922.81;;;10.66;79.79
7940;BME280;4015;48.888;9.226;2023-03-22T01:09:46;157901.13;;;10.58;80.06
7940;BME280;4015;48.888;9.226;2023-03-22T01:12:12;157834.69;;;10.31;81.48
7940;BME280;4015;48.888;9.226;2023-03-22T01:14:37;157848.72;;;10.37;81.14
7940;BME280;4015;48.888;9.226;2023-03-22T01:17:03;157784.81;;;10.11;82.45
7940;BME280;4015;48.888;9.226;2023-03-22T01:19:29;157774.63;;;10.07;82.90
7940;BME280;4015;48.888;9.226;2023-03-22T01:21:55;157770.81;;;10.06;82.68
7940;BME280;4015;48.888;9.226;2023-03-22T01:24:21;157720.97;;;9.86;84.12
7940;BME280;4015;48.888;9.226;2023-03-22T01:26:47;157728.66;;;9.89;84.08
7940;BME280;4015;48.888;9.226;2023-03-22T01:29:12;157704.38;;;9.79;85.35
7940;BME280;4015;48.888;9.226;2023-03-22T01:31:38;157729.94;;;9.89;84.40
7940;BME280;4015;48.888;9.226;2023-03-22T01:34:03;157756.75;;;10.00;83.94
7940;BME280;4015;48.888;9.226;2023-03-22T01:36:29;157750.34;;;9.97;84.13
7940;BME280;4015;48.888;9.226;2023-03-22T01:38:54;157732.47;;;9.90;84.33
7940;BME280;4015;48.888;9.226;2023-03-22T01:41:20;157756.75;;;10.00;83.76
7940;BME280;4015;48.888;9.226;2023-03-22T01:46:30;157788.69;;;10.13;83.21
7940;BME280;4015;48.888;9.226;2023-03-22T01:48:57;157787.41;;;10.12;83.17
7940;BME280;4015;48.888;9.226;2023-03-22T01:51:24;157756.75;;;10.00;83.79
7940;BME280;4015;48.888;9.226;2023-03-22T01:53:51;157733.75;;;9.91;84.01
7940;BME280;4015;48.888;9.226;2023-03-22T01:56:21;157728.66;;;9.89;83.89
7940;BME280;4015;48.888;9.226;2023-03-22T01:58:47;157709.50;;;9.81;84.09
7940;BME280;4015;48.888;9.226;2023-03-22T02:01:13;157643.09;;;9.55;84.88
7940;BME280;4015;48.888;9.226;2023-03-22T02:06:17;157544.81;;;9.15;87.06
7940;BME280;4015;48.888;9.226;2023-03-22T02:08:43;157534.66;;;9.11;87.09
7940;BME280;4015;48.888;9.226;2023-03-22T02:11:13;157530.78;;;9.10;86.62
7940;BME280;4015;48.888;9.226;2023-03-22T02:16:42;157516.72;;;9.04;86.71
7940;BME280;4015;48.888;9.226;2023-03-22T02:25:09;157449.13;;;8.77;87.04
7940;BME280;4015;48.888;9.226;2023-03-22T02:37:06;157382.78;;;8.51;88.89
7940;BME280;4015;48.888;9.226;2023-03-22T02:45:31;157326.59;;;8.28;89.58
7940;BME280;4015;48.888;9.226;2023-03-22T02:53:18;157329.13;;;8.29;90.39
7940;BME280;4015;48.888;9.226;2023-03-22T02:55:51;157322.78;;;8.27;90.52
7940;BME280;4015;48.888;9.226;2023-03-22T02:58:25;157315.16;;;8.24;90.76
7940;BME280;4015;48.888;9.226;2023-03-22T03:00:56;157310.03;;;8.22;90.49
7940;BME280;4015;48.888;9.226;2023-03-22T03:03:25;157357.25;;;8.41;90.50
7940;BME280;4015;48.888;9.226;2023-03-22T03:05:56;157320.25;;;8.26;90.38
7940;BME280;4015;48.888;9.226;2023-03-22T03:08:24;157307.47;;;8.21;91.45
7940;BME280;4015;48.888;9.226;2023-03-22T03:10:50;157333.00;;;8.31;91.17
7940;BME280;4015;48.888;9.226;2023-03-22T03:13:17;157321.50;;;8.26;91.31
7940;BME280;4015;48.888;9.226;2023-03-22T03:15:45;157339.38;;;8.33;91.32
7940;BME280;4015;48.888;9.226;2023-03-22T03:18:35;157322.78;;;8.27;91.49
7940;BME280;4015;48.888;9.226;2023-03-22T03:21:32;157265.38;;;8.04;91.02
7940;BME280;4015;48.888;9.226;2023-03-22T03:27:34;157219.47;;;7.85;92.77
7940;BME280;4015;48.888;9.226;2023-03-22T03:30:19;157248.81;;;7.97;92.26
7940;BME280;4015;48.888;9.226;2023-03-22T03:32:51;157255.22;;;8.00;93.31
7940;BME280;4015;48.888;9.226;2023-03-22T03:35:27;157278.13;;;8.09;93.02
7940;BME280;4015;48.888;9.226;2023-03-22T03:38:05;157227.16;;;7.89;92.29
7940;BME280;4015;48.888;9.226;2023-03-22T03:40:36;157199.09;;;7.77;93.52
7940;BME280;4015;48.888;9.226;2023-03-22T03:43:04;157197.81;;;7.77;93.69
7940;BME280;4015;48.888;9.226;2023-03-22T03:45:32;157174.88;;;7.68;94.14
7940;BME280;4015;48.888;9.226;2023-03-22T03:48:01;157160.84;;;7.62;94.31
7940;BME280;4015;48.888;9.226;2023-03-22T03:50:28;157154.44;;;7.60;94.04
7940;BME280;4015;48.888;9.226;2023-03-22T03:52:54;157165.94;;;7.64;94.07
7940;BME280;4015;48.888;9.226;2023-03-22T03:55:21;157165.94;;;7.64;93.98
7940;BME280;4015;48.888;9.226;2023-03-22T03:57:46;157195.28;;;7.76;94.30
7940;BME280;4015;48.888;9.226;2023-03-22T04:00:13;157228.41;;;7.89;94.02
7940;BME280;4015;48.888;9.226;2023-03-22T04:02:42;157256.47;;;8.00;93.22
7940;BME280;4015;48.888;9.226;2023-03-22T04:05:09;157250.06;;;7.98;93.27
7940;BME280;4015;48.888;9.226;2023-03-22T04:07:35;157265.38;;;8.04;92.93
7940;BME280;4015;48.888;9.226;2023-03-22T04:10:00;157261.56;;;8.02;92.97
7940;BME280;4015;48.888;9.226;2023-03-22T04:12:26;157264.09;;;8.03;93.09
7940;BME280;4015;48.888;9.226;2023-03-22T04:14:51;157256.47;;;8.00;93.38
7940;BME280;4015;48.888;9.226;2023-03-22T04:17:17;157214.38;;;7.83;93.77
7940;BME280;4015;48.888;9.226;2023-03-22T04:19:42;157187.59;;;7.73;94.00
7940;BME280;4015;48.888;9.226;2023-03-22T04:22:09;157159.59;;;7.62;93.57
7940;BME280;4015;48.888;9.226;2023-03-22T04:24:39;157128.97;;;7.49;94.67
7940;BME280;4015;48.888;9.226;2023-03-22T04:27:05;157179.97;;;7.70;93.28
7940;BME280;4015;48.888;9.226;2023-03-22T04:29:32;157194.00;;;7.75;92.19
7940;BME280;4015;48.888;9.226;2023-03-22T04:32:01;157199.09;;;7.77;91.39
7940;BME280;4015;48.888;9.226;2023-03-22T04:34:26;157190.19;;;7.74;90.81
7940;BME280;4015;48.888;9.226;2023-03-22T04:36:51;157186.31;;;7.72;90.64
7940;BME280;4015;48.888;9.226;2023-03-22T04:39:17;157174.88;;;7.68;90.40
7940;BME280;4015;48.888;9.226;2023-03-22T04:41:42;157159.59;;;7.62;90.09
7940;BME280;4015;48.888;9.226;2023-03-22T04:44:08;157140.44;;;7.54;90.11
7940;BME280;4015;48.888;9.226;2023-03-22T04:46:35;157143.00;;;7.55;90.16
7940;BME280;4015;48.888;9.226;2023-03-22T04:49:00;157126.44;;;7.48;89.80
7940;BME280;4015;48.888;9.226;2023-03-22T04:51:26;157106.00;;;7.40;90.25
7940;BME280;4015;48.888;9.226;2023-03-22T04:53:52;157097.13;;;7.37;90.74
7940;BME280;4015;48.888;9.226;2023-03-22T04:56:18;157089.44;;;7.34;90.87
7940;BME280;4015;48.888;9.226;2023-03-22T04:58:44;157108.56;;;7.41;90.98
7940;BME280;4015;48.888;9.226;2023-03-22T05:01:11;157113.69;;;7.43;91.21
7940;BME280;4015;48.888;9.226;2023-03-22T05:03:37;157113.69;;;7.43;91.00
7940;BME280;4015;48.888;9.226;2023-03-22T05:06:04;157120.03;;;7.46;90.99
7940;BME280;4015;48.888;9.226;2023-03-22T05:08:31;157121.31;;;7.46;91.40
7940;BME280;4015;48.888;9.226;2023-03-22T05:10:58;157125.13;;;7.48;91.03
7940;BME280;4015;48.888;9.226;2023-03-22T05:13:26;157107.28;;;7.41;91.39
7940;BME280;4015;48.888;9.226;2023-03-22T05:15:52;157104.75;;;7.40;90.84
7940;BME280;4015;48.888;9.226;2023-03-22T05:18:20;157077.97;;;7.29;90.42
7940;BME280;4015;48.888;9.226;2023-03-22T05:20:46;157006.63;;;7.00;92.28
7940;BME280;4015;48.888;9.226;2023-03-22T05:23:15;156970.94;;;6.86;93.39
7940;BME280;4015;48.888;9.226;2023-03-22T05:25:44;156949.25;;;6.78;94.08
7940;BME280;4015;48.888;9.226;2023-03-22T05:28:11;156928.88;;;6.69;93.80
7940;BME280;4015;48.888;9.226;2023-03-22T05:30:38;156950.53;;;6.78;93.49
7940;BME280;4015;48.888;9.226;2023-03-22T05:33:04;156965.81;;;6.84;93.55
7940;BME280;4015;48.888;9.226;2023-03-22T05:35:30;156963.28;;;6.83;93.77
7940;BME280;4015;48.888;9.226;2023-03-22T05:37:56;156970.94;;;6.86;93.75
7940;BME280;4015;48.888;9.226;2023-03-22T05:40:23;156981.13;;;6.90;93.65
7940;BME280;4015;48.888;9.226;2023-03-22T05:42:49;157015.56;;;7.04;92.88
7940;BME280;4015;48.888;9.226;2023-03-22T05:45:15;157005.34;;;7.00;92.60
7940;BME280;4015;48.888;9.226;2023-03-22T05:47:40;157023.19;;;7.07;92.71
7940;BME280;4015;48.888;9.226;2023-03-22T05:50:08;157027.00;;;7.09;92.34
7940;BME280;4015;48.888;9.226;2023-03-22T05:52:33;157053.78;;;7.19;92.16
7940;BME280;4015;48.888;9.226;2023-03-22T05:54:59;157116.22;;;7.44;90.95
7940;BME280;4015;48.888;9.226;2023-03-22T05:57:24;157154.44;;;7.60;89.74
7940;BME280;4015;48.888;9.226;2023-03-22T05:59:51;157200.34;;;7.78;89.28
7940;BME280;4015;48.888;9.226;2023-03-22T06:02:18;157232.22;;;7.91;88.11
7940;BME280;4015;48.888;9.226;2023-03-22T06:04:45;157276.88;;;8.08;87.90
7940;BME280;4015;48.888;9.226;2023-03-22T06:07:10;157270.50;;;8.06;87.29
7940;BME280;4015;48.888;9.226;2023-03-22T06:09:36;157266.66;;;8.04;87.19
7940;BME280;4015;48.888;9.226;2023-03-22T06:12:01;157260.28;;;8.02;87.75
7940;BME280;4015;48.888;9.226;2023-03-22T06:14:27;157284.53;;;8.11;87.27
7940;BME280;4015;48.888;9.226;2023-03-22T06:16:52;157299.84;;;8.18;87.03
7940;BME280;4015;48.888;9.226;2023-03-22T06:19:17;157349.63;;;8.37;86.98
7940;BME280;4015;48.888;9.226;2023-03-22T06:21:43;157412.16;;;8.62;86.60
7940;BME280;4015;48.888;9.226;2023-03-22T06:24:08;157668.63;;;9.65;82.41
7940;BME280;4015;48.888;9.226;2023-03-22T06:26:34;158021.16;;;11.05;76.98
7940;BME280;4015;48.888;9.226;2023-03-22T06:28:59;158321.59;;;12.25;72.65
7940;BME280;4015;48.888;9.226;2023-03-22T06:31:27;158582.63;;;13.29;69.23
7940;BME280;4015;48.888;9.226;2023-03-22T06:33:53;158789.97;;;14.12;66.46
7940;BME280;4015;48.888;9.226;2023-03-22T06:36:18;158946.22;;;14.74;62.59
7940;BME280;4015;48.888;9.226;2023-03-22T06:38:44;159030.75;;;15.07;62.55
7940;BME280;4015;48.888;9.226;2023-03-22T06:41:09;159052.53;;;15.16;61.69
7940;BME280;4015;48.888;9.226;2023-03-22T06:43:34;159055.09;;;15.17;61.64
7940;BME280;4015;48.888;9.226;2023-03-22T06:46:00;159129.41;;;15.47;61.07
7940;BME280;4015;48.888;9.226;2023-03-22T06:48:25;159205.03;;;15.77;60.85
7940;BME280;4015;48.888;9.226;2023-03-22T06:50:50;159370.41;;;16.42;59.07
7940;BME280;4015;48.888;9.226;2023-03-22T06:53:16;159211.47;;;15.79;59.28
7940;BME280;4015;48.888;9.226;2023-03-22T06:55:41;159274.25;;;16.04;59.75
7940;BME280;4015;48.888;9.226;2023-03-22T06:58:07;159151.19;;;15.55;60.86
7940;BME280;4015;48.888;9.226;2023-03-22T07:00:32;159370.41;;;16.42;59.17
7940;BME280;4015;48.888;9.226;2023-03-22T07:02:58;159597.41;;;17.33;58.01
7940;BME280;4015;48.888;9.226;2023-03-22T07:05:24;159549.94;;;17.14;58.28
7940;BME280;4015;48.888;9.226;2023-03-22T07:07:49;159715.50;;;17.79;55.68
7940;BME280;4015;48.888;9.226;2023-03-22T07:10:15;159952.94;;;18.74;53.97
7940;BME280;4015;48.888;9.226;2023-03-22T07:12:40;159937.53;;;18.68;52.88
7940;BME280;4015;48.888;9.226;2023-03-22T07:15:06;160144.25;;;19.50;51.62
7940;BME280;4015;48.888;9.226;2023-03-22T07:17:32;160121.09;;;19.40;51.86
7940;BME280;4015;48.888;9.226;2023-03-22T07:19:57;160083.88;;;19.26;51.49
7940;BME280;4015;48.888;9.226;2023-03-22T07:22:23;160074.88;;;19.22;53.83
7940;BME280;4015;48.888;9.226;2023-03-22T07:24:51;160258.59;;;19.95;53.03
7940;BME280;4015;48.888;9.226;2023-03-22T07:27:17;160519.44;;;20.98;50.07
7940;BME280;4015;48.888;9.226;2023-03-22T07:29:43;160500.19;;;20.91;49.70
7940;BME280;4015;48.888;9.226;2023-03-22T07:32:09;160379.38;;;20.43;49.88
7940;BME280;4015;48.888;9.226;2023-03-22T07:34:34;160788.19;;;22.05;47.93
7940;BME280;4015;48.888;9.226;2023-03-22T07:37:00;160455.19;;;20.73;48.81
7940;BME280;4015;48.888;9.226;2023-03-22T07:39:27;160734.19;;;21.84;48.54
7940;BME280;4015;48.888;9.226;2023-03-22T07:41:53;160951.59;;;22.70;47.72
7940;BME280;4015;48.888;9.226;2023-03-22T07:44:19;160558.03;;;21.14;48.22
7940;BME280;4015;48.888;9.226;2023-03-22T07:46:45;160956.72;;;22.72;46.97
7940;BME280;4015;48.888;9.226;2023-03-22T07:49:10;161206.47;;;23.71;44.24
7940;BME280;4015;48.888;9.226;2023-03-22T07:51:35;161082.88;;;23.22;46.79
7940;BME280;4015;48.888;9.226;2023-03-22T07:54:01;161082.88;;;23.22;44.74
7940;BME280;4015;48.888;9.226;2023-03-22T07:56:26;160869.25;;;22.37;44.71
7940;BME280;4015;48.888;9.226;2023-03-22T07:58:52;160927.13;;;22.60;45.49
7940;BME280;4015;48.888;9.226;2023-03-22T08:01:17;161272.09;;;23.97;43.08
7940;BME280;4015;48.888;9.226;2023-03-22T08:03:43;161272.09;;;23.97;44.50
7940;BME280;4015;48.888;9.226;2023-03-22T08:06:08;161104.72;;;23.30;44.14
7940;BME280;4015;48.888;9.226;2023-03-22T08:08:35;161080.28;;;23.21;45.17
7940;BME280;4015;48.888;9.226;2023-03-22T08:11:05;160968.31;;;22.76;43.39
7940;BME280;4015;48.888;9.226;2023-03-22T08:13:30;161027.50;;;23.00;44.09
7940;BME280;4015;48.888;9.226;2023-03-22T08:15:55;161139.44;;;23.44;43.69
7940;BME280;4015;48.888;9.226;2023-03-22T08:18:21;161270.81;;;23.96;42.07
7940;BME280;4015;48.888;9.226;2023-03-22T08:21:00;161336.47;;;24.22;42.74
7940;BME280;4015;48.888;9.226;2023-03-22T08:23:27;161310.69;;;24.12;43.53
7940;BME280;4015;48.888;9.226;2023-03-22T08:25:52;161424.03;;;24.57;40.54
7940;BME280;4015;48.888;9.226;2023-03-22T08:28:18;161364.78;;;24.33;41.67
7940;BME280;4015;48.888;9.226;2023-03-22T08:30:46;161139.44;;;23.44;41.67
7940;BME280;4015;48.888;9.226;2023-03-22T08:33:12;161257.94;;;23.91;39.85
7940;BME280;4015;48.888;9.226;2023-03-22T08:35:39;161355.75;;;24.30;41.55
7940;BME280;4015;48.888;9.226;2023-03-22T08:38:04;161510.31;;;24.91;39.60
7940;BME280;4015;48.888;9.226;2023-03-22T08:40:30;161596.66;;;25.25;40.27
7940;BME280;4015;48.888;9.226;2023-03-22T08:42:56;161585.03;;;25.20;38.61
7940;BME280;4015;48.888;9.226;2023-03-22T08:45:22;161768.03;;;25.93;39.02
7940;BME280;4015;48.888;9.226;2023-03-22T08:47:48;161864.69;;;26.31;37.14
7940;BME280;4015;48.888;9.226;2023-03-22T08:50:13;161875.00;;;26.35;37.69
7940;BME280;4015;48.888;9.226;2023-03-22T08:52:38;161847.94;;;26.24;36.24
7940;BME280;4015;48.888;9.226;2023-03-22T08:55:05;161934.28;;;26.58;36.84
7940;BME280;4015;48.888;9.226;2023-03-22T08:57:32;161909.84;;;26.49;36.25
7940;BME280;4015;48.888;9.226;2023-03-22T08:59:59;162020.69;;;26.93;36.23
7940;BME280;4015;48.888;9.226;2023-03-22T09:02:25;162015.53;;;26.91;35.83
7940;BME280;4015;48.888;9.226;2023-03-22T09:04:51;162098.09;;;27.23;35.61
7940;BME280;4015;48.888;9.226;2023-03-22T09:07:18;162112.28;;;27.29;35.37
7940;BME280;4015;48.888;9.226;2023-03-22T09:09:44;162029.69;;;26.96;36.02
7940;BME280;4015;48.888;9.226;2023-03-22T09:12:10;161907.28;;;26.48;36.51
7940;BME280;4015;48.888;9.226;2023-03-22T09:14:35;161931.72;;;26.57;37.14
7940;BME280;4015;48.888;9.226;2023-03-22T09:17:01;162050.34;;;27.04;36.32
7940;BME280;4015;48.888;9.226;2023-03-22T09:19:27;161985.88;;;26.79;37.00
7940;BME280;4015;48.888;9.226;2023-03-22T09:21:52;161787.34;;;26.00;37.40
7940;BME280;4015;48.888;9.226;2023-03-22T09:24:18;162003.94;;;26.86;37.24
7940;BME280;4015;48.888;9.226;2023-03-22T09:26:43;162000.06;;;26.84;35.93
7940;BME280;4015;48.888;9.226;2023-03-22T09:29:09;161939.47;;;26.60;36.48
7940;BME280;4015;48.888;9.226;2023-03-22T09:31:34;161943.34;;;26.62;37.37
7940;BME280;4015;48.888;9.226;2023-03-22T09:34:00;161914.97;;;26.51;36.57
7940;BME280;4015;48.888;9.226;2023-03-22T09:36:25;161815.72;;;26.12;37.82
7940;BME280;4015;48.888;9.226;2023-03-22T09:38:50;161406.00;;;24.49;40.35
7940;BME280;4015;48.888;9.226;2023-03-22T09:41:21;161615.97;;;25.33;40.39
7940;BME280;4015;48.888;9.226;2023-03-22T09:43:51;161792.53;;;26.02;37.52
7940;BME280;4015;48.888;9.226;2023-03-22T09:46:24;161900.78;;;26.45;36.81
7940;BME280;4015;48.888;9.226;2023-03-22T09:48:52;162201.19;;;27.64;34.53
7940;BME280;4015;48.888;9.226;2023-03-22T09:51:41;162196.06;;;27.62;35.92
7940;BME280;4015;48.888;9.226;2023-03-22T09:54:29;162359.88;;;28.27;35.39
7940;BME280;4015;48.888;9.226;2023-03-22T09:57:04;162258.00;;;27.86;37.57
7940;BME280;4015;48.888;9.226;2023-03-22T10:02:45;162556.09;;;29.04;35.60
7940;BME280;4015;48.888;9.226;2023-03-22T10:10:25;162405.09;;;28.44;37.27
7940;BME280;4015;48.888;9.226;2023-03-22T10:13:22;161744.88;;;25.84;37.62
7940;BME280;4015;48.888;9.226;2023-03-22T10:15:54;161532.22;;;24.99;38.61
7940;BME280;4015;48.888;9.226;2023-03-22T10:18:33;161409.88;;;24.51;39.48
7940;BME280;4015;48.888;9.226;2023-03-22T10:21:06;161232.16;;;23.81;40.20
7940;BME280;4015;48.888;9.226;2023-03-22T10:23:55;161381.56;;;24.40;41.06
7940;BME280;4015;48.888;9.226;2023-03-22T10:26:26;161653.34;;;25.47;38.32
7940;BME280;4015;48.888;9.226;2023-03-22T10:29:00;161933.00;;;26.58;37.91
7940;BME280;4015;48.888;9.226;2023-03-22T10:31:30;162152.22;;;27.45;36.67
7940;BME280;4015;48.888;9.226;2023-03-22T10:34:09;162428.28;;;28.54;34.66
7940;BME280;4015;48.888;9.226;2023-03-22T10:36:37;162460.56;;;28.66;34.16
7940;BME280;4015;48.888;9.226;2023-03-22T10:39:12;162521.16;;;28.90;33.89
7940;BME280;4015;48.888;9.226;2023-03-22T10:41:41;162745.78;;;29.79;32.94
7940;BME280;4015;48.888;9.226;2023-03-22T10:44:09;162685.19;;;29.55;33.04
7940;BME280;4015;48.888;9.226;2023-03-22T10:46:39;162823.25;;;30.09;32.82
7940;BME280;4015;48.888;9.226;2023-03-22T10:49:06;162900.75;;;30.40;33.12
7940;BME280;4015;48.888;9.226;2023-03-22T10:51:41;162958.88;;;30.63;32.84
7940;BME280;4015;48.888;9.226;2023-03-22T10:54:12;163303.81;;;31.99;30.53
7940;BME280;4015;48.888;9.226;2023-03-22T10:56:38;163147.53;;;31.37;30.89
7940;BME280;4015;48.888;9.226;2023-03-22T10:59:03;163187.53;;;31.53;31.38
7940;BME280;4015;48.888;9.226;2023-03-22T11:01:31;163120.38;;;31.27;31.54
7940;BME280;4015;48.888;9.226;2023-03-22T11:04:04;162712.25;;;29.66;32.97
7940;BME280;4015;48.888;9.226;2023-03-22T11:06:31;162337.97;;;28.18;34.83
7940;BME280;4015;48.888;9.226;2023-03-22T11:09:10;162273.50;;;27.92;35.88
7940;BME280;4015;48.888;9.226;2023-03-22T11:11:54;162344.41;;;28.20;35.61
7940;BME280;4015;48.888;9.226;2023-03-22T11:14:28;162389.59;;;28.38;34.09
7940;BME280;4015;48.888;9.226;2023-03-22T11:16:58;162636.09;;;29.36;33.95
7940;BME280;4015;48.888;9.226;2023-03-22T11:19:36;162474.72;;;28.72;34.66
7940;BME280;4015;48.888;9.226;2023-03-22T11:22:06;162599.94;;;29.21;33.96
7940;BME280;4015;48.888;9.226;2023-03-22T11:24:33;162427.00;;;28.53;35.12
7940;BME280;4015;48.888;9.226;2023-03-22T11:29:51;162180.59;;;27.56;36.03
7940;BME280;4015;48.888;9.226;2023-03-22T11:32:29;162264.44;;;27.89;36.70
7940;BME280;4015;48.888;9.226;2023-03-22T11:37:47;162328.91;;;28.14;35.68
7940;BME280;4015;48.888;9.226;2023-03-22T11:42:44;162785.84;;;29.95;34.08
7940;BME280;4015;48.888;9.226;2023-03-22T11:45:31;162761.28;;;29.85;33.65
7940;BME280;4015;48.888;9.226;2023-03-22T11:48:06;162463.16;;;28.67;35.04
7940;BME280;4015;48.888;9.226;2023-03-22T11:50:35;162437.34;;;28.57;36.14
7940;BME280;4015;48.888;9.226;2023-03-22T11:53:03;162239.97;;;27.79;35.60
7940;BME280;4015;48.888;9.226;2023-03-22T11:55:33;162096.78;;;27.23;36.55
7940;BME280;4015;48.888;9.226;2023-03-22T11:58:02;162147.06;;;27.42;36.74
7940;BME280;4015;48.888;9.226;2023-03-22T12:00:29;162260.59;;;27.87;35.37
7940;BME280;4015;48.888;9.226;2023-03-22T12:03:00;162256.72;;;27.86;35.69
7940;BME280;4015;48.888;9.226;2023-03-22T12:05:30;162481.19;;;28.74;34.46
7940;BME280;4015;48.888;9.226;2023-03-22T12:08:15;162531.56;;;28.94;35.49
7940;BME280;4015;48.888;9.226;2023-03-22T12:10:46;162716.16;;;29.67;33.01
7940;BME280;4015;48.888;9.226;2023-03-22T12:13:18;162754.84;;;29.82;33.32
7940;BME280;4015;48.888;9.226;2023-03-22T12:16:05;162538.00;;;28.97;33.78
7940;BME280;4015;48.888;9.226;2023-03-22T12:18:47;162554.75;;;29.03;33.98
7940;BME280;4015;48.888;9.226;2023-03-22T12:21:15;162497.97;;;28.81;35.39
7940;BME280;4015;48.888;9.226;2023-03-22T12:23:41;162543.19;;;28.99;34.24
7940;BME280;4015;48.888;9.226;2023-03-22T12:26:22;162543.19;;;28.99;33.28
7940;BME280;4015;48.888;9.226;2023-03-22T12:28:55;162223.22;;;27.73;34.75
7940;BME280;4015;48.888;9.226;2023-03-22T12:31:38;162059.38;;;27.08;35.34
7940;BME280;4015;48.888;9.226;2023-03-22T12:34:14;161914.97;;;26.51;35.85
7940;BME280;4015;48.888;9.226;2023-03-22T12:36:43;161936.91;;;26.59;36.53
7940;BME280;4015;48.888;9.226;2023-03-22T12:39:23;161973.00;;;26.74;38.00
7940;BME280;4015;48.888;9.226;2023-03-22T12:41:52;162036.16;;;26.99;36.71
7940;BME280;4015;48.888;9.226;2023-03-22T12:44:37;162031.00;;;26.97;37.27
7940;BME280;4015;48.888;9.226;2023-03-22T12:47:12;162165.13;;;27.50;35.55
7940;BME280;4015;48.888;9.226;2023-03-22T12:49:43;162214.16;;;27.69;36.33
7940;BME280;4015;48.888;9.226;2023-03-22T12:52:30;162396.03;;;28.41;34.66
7940;BME280;4015;48.888;9.226;2023-03-22T12:54:59;162557.38;;;29.05;33.59
7940;BME280;4015;48.888;9.226;2023-03-22T12:57:26;162606.41;;;29.24;34.57
7940;BME280;4015;48.888;9.226;2023-03-22T12:59:54;162899.47;;;30.40;33.15
7940;BME280;4015;48.888;9.226;2023-03-22T13:02:32;162738.06;;;29.76;32.89
7940;BME280;4015;48.888;9.226;2023-03-22T13:05:05;162859.47;;;30.24;31.68
7940;BME280;4015;48.888;9.226;2023-03-22T13:10:00;162971.84;;;30.68;31.54
7940;BME280;4015;48.888;9.226;2023-03-22T13:12:29;162940.81;;;30.56;31.53
7940;BME280;4015;48.888;9.226;2023-03-22T13:14:58;162966.59;;;30.66;29.94
7940;BME280;4015;48.888;9.226;2023-03-22T13:27:57;162197.34;;;27.62;30.82
7940;BME280;4015;48.888;9.226;2023-03-22T13:30:47;161845.34;;;26.23;33.39
7940;BME280;4015;48.888;9.226;2023-03-22T13:33:18;161768.03;;;25.93;34.14
7940;BME280;4015;48.888;9.226;2023-03-22T13:38:28;162238.69;;;27.79;33.07
7940;BME280;4015;48.888;9.226;2023-03-22T13:41:07;162424.41;;;28.52;31.37
7940;BME280;4015;48.888;9.226;2023-03-22T13:48:51;162256.72;;;27.86;32.57
7940;BME280;4015;48.888;9.226;2023-03-22T14:01:42;162588.34;;;29.17;31.33
7940;BME280;4015;48.888;9.226;2023-03-22T14:04:15;162565.09;;;29.08;31.07
7940;BME280;4015;48.888;9.226;2023-03-22T14:12:31;162446.38;;;28.61;31.70
7940;BME280;4015;48.888;9.226;2023-03-22T14:15:02;162071.00;;;27.12;31.13
7940;BME280;4015;48.888;9.226;2023-03-22T14:18:07;161818.28;;;26.13;33.01
7940;BME280;4015;48.888;9.226;2023-03-22T14:20:29;161845.34;;;26.23;34.95
7940;BME280;4015;48.888;9.226;2023-03-22T14:22:59;161947.19;;;26.63;33.25
7940;BME280;4015;48.888;9.226;2023-03-22T14:25:31;162005.22;;;26.86;33.20
7940;BME280;4015;48.888;9.226;2023-03-22T14:27:57;162163.81;;;27.49;32.46
7940;BME280;4015;48.888;9.226;2023-03-22T14:32:59;161994.88;;;26.82;32.41
7940;BME280;4015;48.888;9.226;2023-03-22T14:35:45;161501.28;;;24.87;35.08
7940;BME280;4015;48.888;9.226;2023-03-22T14:38:19;161243.78;;;23.85;36.78
7940;BME280;4015;48.888;9.226;2023-03-22T14:40:45;161171.63;;;23.57;36.97
7940;BME280;4015;48.888;9.226;2023-03-22T14:43:23;161281.06;;;24.00;36.50
7940;BME280;4015;48.888;9.226;2023-03-22T14:46:04;161224.47;;;23.78;36.24
7940;BME280;4015;48.888;9.226;2023-03-22T14:48:32;161143.34;;;23.46;36.42
7940;BME280;4015;48.888;9.226;2023-03-22T14:51:01;161215.44;;;23.74;36.81
7940;BME280;4015;48.888;9.226;2023-03-22T14:53:31;161293.97;;;24.05;36.25
7940;BME280;4015;48.888;9.226;2023-03-22T14:55:58;161379.00;;;24.39;35.76
7940;BME280;4015;48.888;9.226;2023-03-22T14:58:31;161381.56;;;24.40;36.99